Time;durP1;ratioP1;P1;durP2;ratioP2;P2;SDS_P1;SDS_P2;PMS_P1;PMS_P2;Temp;Humidity;BMP_temperature;BMP_pressure;BME280_temperature;BME280_humidity;BME280_pressure;Samples;Min_cycle;Max_cycle;Signal;HPM_P1;HPM_P2
2021/10/03 00:01:59;;;;;;;4.77;4.23;;;20.10;99.90;;;;;;5033044;28;20463;-78
2021/10/03 00:04:29;;;;;;;5.47;4.43;;;20.10;99.90;;;;;;5047984;28;20483;-78
2021/10/03 00:06:59;;;;;;;4.70;4.30;;;20.10;99.90;;;;;;5049977;28;20466;-78
2021/10/03 00:09:28;;;;;;;5.23;4.33;;;20.10;99.90;;;;;;5049460;28;20446;-79
2021/10/03 00:11:57;;;;;;;4.47;4.00;;;20.10;99.90;;;;;;5045622;28;21149;-77
2021/10/03 00:14:26;;;;;;;3.17;2.90;;;20.10;99.90;;;;;;5031834;28;20486;-80
2021/10/03 00:16:55;;;;;;;3.57;2.73;;;20.10;99.90;;;;;;5051930;28;20500;-79
2021/10/03 00:19:25;;;;;;;3.30;3.00;;;20.10;99.90;;;;;;5040252;28;21296;-78
2021/10/03 00:21:53;;;;;;;3.03;2.60;;;20.00;99.90;;;;;;5022293;28;20455;-80
2021/10/03 00:24:22;;;;;;;3.17;2.97;;;20.10;99.90;;;;;;5041085;28;20482;-80
2021/10/03 00:26:50;;;;;;;2.70;2.50;;;20.10;99.90;;;;;;5049302;28;20458;-79
2021/10/03 00:29:20;;;;;;;2.33;2.00;;;20.10;99.90;;;;;;5052111;28;20451;-78
2021/10/03 00:31:48;;;;;;;3.00;2.20;;;20.00;99.90;;;;;;5047982;28;20521;-81
2021/10/03 00:34:16;;;;;;;3.20;2.33;;;20.00;99.90;;;;;;5025161;28;20470;-80
2021/10/03 00:36:44;;;;;;;3.37;2.30;;;20.00;99.90;;;;;;5029181;28;21333;-79
2021/10/03 00:39:13;;;;;;;3.57;2.30;;;20.00;99.90;;;;;;5032562;28;20481;-79
2021/10/03 00:41:43;;;;;;;2.67;2.47;;;19.90;99.90;;;;;;5055298;28;20450;-79
2021/10/03 00:44:12;;;;;;;2.67;2.30;;;20.00;99.90;;;;;;5033933;28;20451;-79
2021/10/03 00:46:42;;;;;;;5.50;3.70;;;19.90;99.90;;;;;;5046298;28;20447;-79
2021/10/03 00:49:11;;;;;;;2.50;2.30;;;19.90;99.90;;;;;;5057266;28;20443;-79
2021/10/03 00:51:39;;;;;;;2.70;2.50;;;19.90;99.90;;;;;;5035529;28;20462;-78
2021/10/03 00:54:07;;;;;;;2.70;2.50;;;19.80;99.90;;;;;;5052890;28;20821;-80
2021/10/03 00:56:36;;;;;;;2.40;2.20;;;19.90;99.90;;;;;;5048323;28;20444;-80
2021/10/03 00:59:04;;;;;;;1.90;1.67;;;19.80;99.90;;;;;;5050366;28;20474;-77
2021/10/03 01:01:33;;;;;;;2.87;2.23;;;19.80;99.90;;;;;;5035240;28;20451;-80
2021/10/03 01:04:03;;;;;;;2.90;1.90;;;19.80;99.90;;;;;;5052952;28;20522;-78
2021/10/03 01:06:31;;;;;;;2.30;2.10;;;19.80;99.90;;;;;;5046004;28;20478;-78
2021/10/03 01:08:59;;;;;;;2.30;2.10;;;19.90;99.90;;;;;;5042484;28;20505;-79
2021/10/03 01:11:27;;;;;;;2.23;1.67;;;19.80;99.90;;;;;;5053233;28;20909;-80
2021/10/03 01:13:56;;;;;;;4.03;2.73;;;19.90;99.90;;;;;;5042960;28;20938;-81
2021/10/03 01:16:24;;;;;;;2.20;1.60;;;20.00;99.90;;;;;;5031244;28;20481;-77
2021/10/03 01:18:55;;;;;;;2.73;1.90;;;20.00;99.90;;;;;;5057641;28;20984;-78
2021/10/03 01:21:25;;;;;;;1.73;1.60;;;20.00;99.90;;;;;;5056248;28;20513;-79
2021/10/03 01:23:54;;;;;;;2.30;2.10;;;20.10;99.90;;;;;;5032452;28;20460;-79
2021/10/03 01:26:22;;;;;;;2.50;1.80;;;20.10;99.90;;;;;;5047839;28;20477;-80
2021/10/03 01:28:53;;;;;;;2.40;1.83;;;20.10;99.90;;;;;;5044116;28;20451;-78
2021/10/03 01:31:21;;;;;;;2.47;1.73;;;20.10;99.90;;;;;;5043669;28;20513;-78
2021/10/03 01:33:52;;;;;;;2.90;2.10;;;20.00;99.90;;;;;;5029481;28;20455;-79
2021/10/03 01:36:20;;;;;;;1.93;1.80;;;20.00;99.90;;;;;;5042318;28;20456;-78
2021/10/03 01:38:50;;;;;;;1.90;1.80;;;19.90;99.90;;;;;;5042225;28;20470;-77
2021/10/03 01:41:18;;;;;;;2.37;2.17;;;19.90;99.90;;;;;;5051973;28;20843;-78
2021/10/03 01:43:47;;;;;;;2.40;2.20;;;20.00;99.90;;;;;;5046240;28;20466;-76
2021/10/03 01:46:16;;;;;;;1.60;1.50;;;20.00;99.90;;;;;;5048843;28;20520;-77
2021/10/03 01:48:46;;;;;;;2.63;2.30;;;20.00;99.90;;;;;;5052332;28;20521;-78
2021/10/03 01:51:16;;;;;;;2.40;2.20;;;20.10;99.90;;;;;;5042692;28;20436;-78
2021/10/03 01:53:49;;;;;;;2.20;2.00;;;20.10;99.90;;;;;;5046154;28;20529;-78
2021/10/03 01:56:20;;;;;;;4.00;2.00;;;20.10;99.90;;;;;;5059262;28;20466;-78
2021/10/03 01:58:50;;;;;;;2.13;1.80;;;20.10;99.90;;;;;;5061429;28;20459;-77
2021/10/03 02:01:21;;;;;;;2.10;1.90;;;20.10;99.90;;;;;;5043706;28;20443;-78
2021/10/03 02:03:50;;;;;;;2.43;2.00;;;20.10;99.90;;;;;;5041780;28;20458;-77
2021/10/03 02:06:18;;;;;;;3.03;2.00;;;20.10;99.90;;;;;;5031033;28;20480;-77
2021/10/03 02:08:51;;;;;;;3.13;2.13;;;20.10;99.90;;;;;;5051177;28;21024;-79
2021/10/03 02:11:22;;;;;;;3.33;1.90;;;20.00;99.90;;;;;;5027800;28;20514;-79
2021/10/03 02:13:50;;;;;;;2.57;1.93;;;20.00;99.90;;;;;;5054110;28;20454;-77
2021/10/03 02:16:19;;;;;;;2.10;1.80;;;20.10;99.90;;;;;;5037881;28;21395;-78
2021/10/03 02:18:47;;;;;;;2.93;1.90;;;20.20;99.90;;;;;;5051459;28;21295;-79
2021/10/03 02:21:16;;;;;;;2.40;1.80;;;20.20;99.90;;;;;;5038352;28;20479;-78
2021/10/03 02:23:45;;;;;;;4.17;1.90;;;20.20;99.90;;;;;;5027299;28;20454;-77
2021/10/03 02:26:14;;;;;;;1.60;1.50;;;20.20;99.90;;;;;;5044321;28;20835;-77
2021/10/03 02:28:44;;;;;;;2.20;2.00;;;20.20;99.90;;;;;;5061368;28;20881;-77
2021/10/03 02:31:13;;;;;;;2.10;1.70;;;20.30;99.90;;;;;;5042503;28;20449;-80
2021/10/03 02:33:45;;;;;;;2.37;1.80;;;20.20;99.90;;;;;;5052109;28;20517;-79
2021/10/03 02:36:15;;;;;;;2.13;1.50;;;20.20;99.90;;;;;;5052755;28;20502;-78
2021/10/03 02:38:44;;;;;;;1.97;1.77;;;20.20;99.90;;;;;;5031372;28;20443;-80
2021/10/03 02:41:12;;;;;;;1.70;1.60;;;20.10;99.90;;;;;;5059099;28;20461;-78
2021/10/03 02:43:46;;;;;;;2.20;2.00;;;20.20;99.90;;;;;;5025855;28;20443;-79
2021/10/03 02:46:15;;;;;;;2.33;1.97;;;20.10;99.90;;;;;;5050864;28;20899;-79
2021/10/03 02:48:49;;;;;;;2.13;1.90;;;20.10;99.90;;;;;;5047537;28;20543;-78
2021/10/03 02:51:18;;;;;;;3.10;2.50;;;20.00;99.90;;;;;;5046861;28;20460;-77
2021/10/03 02:53:47;;;;;;;3.33;1.67;;;20.10;99.90;;;;;;5037150;28;21173;-77
2021/10/03 02:56:16;;;;;;;3.00;2.17;;;19.90;99.90;;;;;;5048691;28;20588;-79
2021/10/03 02:58:46;;;;;;;3.23;1.73;;;19.80;99.90;;;;;;5032972;28;20450;-77
2021/10/03 03:01:14;;;;;;;2.10;1.60;;;19.80;99.90;;;;;;5056248;28;20446;-77
2021/10/03 03:03:42;;;;;;;2.03;1.83;;;19.80;99.90;;;;;;5036366;28;20468;-78
2021/10/03 03:06:12;;;;;;;4.20;1.97;;;19.80;99.90;;;;;;5049726;28;20477;-77
2021/10/03 03:08:40;;;;;;;2.53;1.83;;;19.70;99.90;;;;;;5052250;28;20463;-77
2021/10/03 03:11:08;;;;;;;2.30;2.10;;;19.60;99.90;;;;;;5059894;28;20462;-77
2021/10/03 03:13:37;;;;;;;5.73;1.90;;;19.60;99.90;;;;;;5046967;28;20467;-78
2021/10/03 03:16:07;;;;;;;2.43;1.87;;;19.50;99.90;;;;;;5056191;28;20520;-77
2021/10/03 03:18:36;;;;;;;2.23;1.53;;;19.50;99.90;;;;;;5048735;28;20446;-77
2021/10/03 03:21:04;;;;;;;2.30;2.10;;;19.50;99.90;;;;;;5060596;28;20593;-78
2021/10/03 03:23:32;;;;;;;2.37;1.53;;;19.50;99.90;;;;;;5033503;28;20448;-80
2021/10/03 03:26:00;;;;;;;1.93;1.83;;;19.60;99.90;;;;;;5022739;28;20464;-78
2021/10/03 03:28:28;;;;;;;2.90;1.90;;;19.50;99.90;;;;;;5040784;28;20440;-80
2021/10/03 03:30:57;;;;;;;2.30;1.80;;;19.40;99.90;;;;;;5040560;28;20483;-78
2021/10/03 03:33:27;;;;;;;3.03;1.60;;;19.40;99.90;;;;;;5026526;28;20549;-79
2021/10/03 03:35:55;;;;;;;1.77;1.40;;;19.40;99.90;;;;;;5049278;28;20455;-79
2021/10/03 03:38:24;;;;;;;1.60;1.50;;;19.40;99.90;;;;;;5040743;28;21263;-78
2021/10/03 03:40:52;;;;;;;1.50;1.40;;;19.40;99.90;;;;;;5039506;28;20562;-77
2021/10/03 03:43:20;;;;;;;2.07;1.87;;;19.40;99.90;;;;;;5041151;28;20447;-77
2021/10/03 03:45:48;;;;;;;1.50;1.40;;;19.30;99.90;;;;;;5052295;28;20475;-79
2021/10/03 03:48:16;;;;;;;1.63;1.50;;;19.30;99.90;;;;;;5043813;28;20459;-79
2021/10/03 03:50:46;;;;;;;1.90;1.80;;;19.30;99.90;;;;;;5051853;28;20463;-78
2021/10/03 03:53:14;;;;;;;2.10;1.50;;;19.30;99.90;;;;;;5037532;28;20468;-78
2021/10/03 03:55:42;;;;;;;2.23;1.50;;;19.30;99.90;;;;;;5047699;28;20467;-78
2021/10/03 03:58:11;;;;;;;1.80;1.70;;;19.30;99.90;;;;;;5043716;28;20451;-76
2021/10/03 04:00:39;;;;;;;1.80;1.70;;;19.30;99.90;;;;;;5045146;28;20479;-79
2021/10/03 04:03:07;;;;;;;1.50;1.40;;;19.30;99.90;;;;;;5040682;28;20455;-78
2021/10/03 04:05:35;;;;;;;2.07;1.77;;;19.30;99.90;;;;;;5046590;28;20474;-77
2021/10/03 04:08:08;;;;;;;1.90;1.70;;;19.10;99.90;;;;;;5048514;28;20474;-79
2021/10/03 04:10:36;;;;;;;2.67;1.90;;;19.10;99.90;;;;;;5030873;28;20454;-78
2021/10/03 04:13:04;;;;;;;1.70;1.60;;;19.10;99.90;;;;;;5063825;28;20946;-78
2021/10/03 04:15:32;;;;;;;2.50;1.93;;;19.10;99.90;;;;;;5044710;28;20478;-79
2021/10/03 04:18:01;;;;;;;1.80;1.57;;;19.10;99.90;;;;;;5039210;28;20994;-80
2021/10/03 04:20:29;;;;;;;2.40;1.87;;;19.10;99.90;;;;;;5044153;28;20478;-79
2021/10/03 04:22:57;;;;;;;2.37;1.87;;;19.10;99.90;;;;;;5047340;28;20455;-79
2021/10/03 04:25:26;;;;;;;1.63;1.50;;;19.10;99.90;;;;;;5060422;28;20470;-79
2021/10/03 04:27:54;;;;;;;2.40;1.80;;;19.00;99.90;;;;;;5063068;28;21290;-79
2021/10/03 04:30:23;;;;;;;1.73;1.63;;;19.10;99.90;;;;;;5044532;28;20959;-78
2021/10/03 04:32:51;;;;;;;2.20;1.63;;;19.10;99.90;;;;;;5043668;28;21161;-80
2021/10/03 04:35:19;;;;;;;1.90;1.80;;;19.10;99.90;;;;;;5045285;28;20558;-81
2021/10/03 04:37:47;;;;;;;1.93;1.73;;;19.10;99.90;;;;;;5047766;28;20454;-79
2021/10/03 04:40:16;;;;;;;3.10;1.70;;;19.10;99.90;;;;;;5041669;28;21087;-80
2021/10/03 04:42:47;;;;;;;1.70;1.60;;;19.10;99.90;;;;;;5049243;28;20962;-78
2021/10/03 04:45:16;;;;;;;1.90;1.80;;;19.00;99.90;;;;;;5059383;28;20474;-79
2021/10/03 04:47:44;;;;;;;3.70;1.67;;;18.90;99.90;;;;;;5040361;28;20475;-78
2021/10/03 04:50:14;;;;;;;2.27;2.07;;;18.90;99.90;;;;;;5043599;28;20863;-78
2021/10/03 04:52:43;;;;;;;2.40;1.50;;;19.00;99.90;;;;;;5025566;28;20466;-79
2021/10/03 04:55:12;;;;;;;1.93;1.50;;;19.00;99.90;;;;;;5034497;28;21381;-78
2021/10/03 04:57:40;;;;;;;1.40;1.30;;;19.00;99.90;;;;;;5045190;28;20462;-80
2021/10/03 05:00:11;;;;;;;2.93;1.90;;;19.00;99.90;;;;;;5056094;28;20448;-78
2021/10/03 05:02:39;;;;;;;1.97;1.87;;;19.00;99.90;;;;;;5042999;28;20512;-79
2021/10/03 05:05:08;;;;;;;1.50;1.40;;;19.00;99.90;;;;;;5050247;28;20481;-78
2021/10/03 05:07:36;;;;;;;1.70;1.40;;;19.00;99.90;;;;;;5039309;28;20462;-80
2021/10/03 05:10:05;;;;;;;2.27;1.97;;;19.10;99.90;;;;;;5059675;28;20473;-80
2021/10/03 05:12:33;;;;;;;2.13;1.87;;;19.00;99.90;;;;;;5051880;28;21048;-78
2021/10/03 05:15:01;;;;;;;1.73;1.60;;;19.00;99.90;;;;;;5050271;28;21187;-79
2021/10/03 05:17:31;;;;;;;1.50;1.40;;;19.00;99.90;;;;;;5033133;28;20532;-79
2021/10/03 05:19:59;;;;;;;3.23;1.50;;;19.10;99.90;;;;;;5052504;28;20980;-79
2021/10/03 05:22:27;;;;;;;1.60;1.47;;;19.20;99.90;;;;;;5035712;28;20502;-81
2021/10/03 05:24:56;;;;;;;1.83;1.73;;;19.20;99.90;;;;;;5043611;28;20846;-77
2021/10/03 05:27:24;;;;;;;3.50;1.87;;;19.10;99.90;;;;;;5058737;28;20526;-78
2021/10/03 05:29:52;;;;;;;1.50;1.40;;;19.20;99.90;;;;;;5043063;28;20861;-79
2021/10/03 05:32:20;;;;;;;1.50;1.40;;;19.20;99.90;;;;;;5025465;28;20440;-81
2021/10/03 05:34:50;;;;;;;2.17;1.67;;;19.10;99.90;;;;;;5044715;28;21006;-79
2021/10/03 05:37:18;;;;;;;1.83;1.73;;;19.10;99.90;;;;;;5047855;28;20451;-77
2021/10/03 05:39:46;;;;;;;1.70;1.60;;;19.10;99.90;;;;;;5049948;28;21428;-77
2021/10/03 05:42:14;;;;;;;2.20;1.83;;;19.00;99.90;;;;;;5037561;28;20470;-78
2021/10/03 05:44:42;;;;;;;2.00;1.80;;;18.90;99.90;;;;;;5033505;28;20490;-78
2021/10/03 05:47:11;;;;;;;1.70;1.60;;;19.00;99.90;;;;;;5051027;28;20454;-80
2021/10/03 05:49:39;;;;;;;2.80;2.60;;;18.90;99.90;;;;;;5052114;28;20508;-80
2021/10/03 05:52:08;;;;;;;1.50;1.40;;;18.90;99.90;;;;;;5056395;28;20638;-78
2021/10/03 05:54:36;;;;;;;2.83;1.90;;;18.90;99.90;;;;;;5024629;28;20957;-79
2021/10/03 05:57:05;;;;;;;1.70;1.60;;;18.90;99.90;;;;;;5024885;28;20536;-77
2021/10/03 05:59:33;;;;;;;1.83;1.73;;;18.90;99.90;;;;;;5023532;28;20533;-77
2021/10/03 06:02:01;;;;;;;2.00;1.80;;;18.90;99.90;;;;;;5042833;28;20471;-78
2021/10/03 06:04:29;;;;;;;2.33;2.13;;;18.90;99.90;;;;;;5041144;28;20491;-78
2021/10/03 06:06:58;;;;;;;2.47;2.27;;;19.20;99.90;;;;;;5048552;28;20473;-79
2021/10/03 06:09:27;;;;;;;2.57;2.10;;;18.90;99.90;;;;;;5049736;28;20925;-79
2021/10/03 06:11:55;;;;;;;1.60;1.50;;;19.00;99.90;;;;;;5056720;28;20451;-79
2021/10/03 06:14:24;;;;;;;2.13;1.57;;;18.90;99.90;;;;;;5047136;28;20447;-78
2021/10/03 06:16:52;;;;;;;1.63;1.53;;;18.90;99.90;;;;;;5054187;28;20459;-79
2021/10/03 06:19:20;;;;;;;3.77;2.00;;;18.90;99.90;;;;;;5060340;28;20465;-79
2021/10/03 06:21:48;;;;;;;3.00;2.03;;;19.00;99.90;;;;;;5037920;28;20464;-79
2021/10/03 06:24:18;;;;;;;2.63;1.80;;;19.00;99.90;;;;;;5047812;28;20455;-79
2021/10/03 06:26:48;;;;;;;1.80;1.70;;;19.10;99.90;;;;;;5059467;28;20860;-79
2021/10/03 06:29:17;;;;;;;2.00;1.47;;;19.10;99.90;;;;;;5047942;28;20505;-77
2021/10/03 06:31:45;;;;;;;1.80;1.70;;;19.10;99.90;;;;;;5050473;28;20480;-80
2021/10/03 06:34:14;;;;;;;1.53;1.43;;;19.20;99.90;;;;;;5052721;28;21027;-79
2021/10/03 06:36:42;;;;;;;1.60;1.50;;;19.20;99.90;;;;;;5046910;28;20477;-79
2021/10/03 06:39:10;;;;;;;1.30;1.20;;;19.20;99.90;;;;;;5053578;28;20505;-81
2021/10/03 06:41:38;;;;;;;2.03;1.30;;;19.20;99.90;;;;;;5032950;28;20510;-79
2021/10/03 06:44:08;;;;;;;2.10;1.80;;;19.30;99.90;;;;;;5050637;28;20721;-79
2021/10/03 06:46:36;;;;;;;1.33;1.23;;;19.30;99.90;;;;;;5053154;28;20459;-79
2021/10/03 06:49:04;;;;;;;1.60;1.50;;;19.30;99.90;;;;;;5053170;28;20488;-79
2021/10/03 06:51:32;;;;;;;3.57;3.20;;;19.30;99.90;;;;;;5052722;28;20510;-79
2021/10/03 06:54:00;;;;;;;14.47;5.90;;;19.40;99.90;;;;;;5027722;28;20443;-79
2021/10/03 06:56:28;;;;;;;2.67;1.83;;;19.40;99.90;;;;;;5051107;28;20879;-79
2021/10/03 06:58:57;;;;;;;2.23;2.03;;;19.40;99.90;;;;;;5041574;28;20446;-78
2021/10/03 07:01:26;;;;;;;4.60;3.03;;;19.40;99.90;;;;;;5044816;28;21047;-78
2021/10/03 07:03:54;;;;;;;2.93;2.37;;;19.40;99.90;;;;;;5051747;28;20730;-78
2021/10/03 07:06:23;;;;;;;3.83;2.60;;;19.50;99.90;;;;;;5048452;28;20487;-79
2021/10/03 07:08:51;;;;;;;4.17;2.57;;;19.60;99.90;;;;;;5027793;28;20454;-79
2021/10/03 07:11:19;;;;;;;3.17;2.73;;;19.60;99.90;;;;;;5052247;28;20488;-78
2021/10/03 07:13:49;;;;;;;5.33;2.60;;;19.70;99.90;;;;;;5051138;28;20459;-79
2021/10/03 07:16:17;;;;;;;3.80;2.50;;;19.70;99.90;;;;;;5052193;28;20673;-79
2021/10/03 07:18:47;;;;;;;4.03;2.20;;;19.80;99.90;;;;;;5052441;28;20455;-78
2021/10/03 07:21:15;;;;;;;2.20;2.00;;;19.80;99.90;;;;;;5044701;28;20459;-78
2021/10/03 07:23:43;;;;;;;3.00;1.80;;;19.80;99.90;;;;;;5045998;28;20876;-78
2021/10/03 07:26:13;;;;;;;3.30;2.40;;;19.80;99.90;;;;;;5045171;28;20479;-79
2021/10/03 07:28:41;;;;;;;3.50;2.17;;;19.80;99.90;;;;;;5044668;28;20463;-79
2021/10/03 07:31:10;;;;;;;2.93;2.13;;;19.80;99.90;;;;;;5048972;28;20455;-79
2021/10/03 07:33:39;;;;;;;2.70;2.33;;;19.80;99.90;;;;;;5039710;28;20443;-78
2021/10/03 07:36:09;;;;;;;2.10;1.90;;;19.90;99.90;;;;;;5031174;28;20475;-79
2021/10/03 07:38:37;;;;;;;1.63;1.53;;;20.00;99.90;;;;;;5050706;28;20962;-79
2021/10/03 07:41:05;;;;;;;2.23;1.97;;;19.90;99.90;;;;;;5052982;28;20462;-79
2021/10/03 07:43:33;;;;;;;2.73;2.20;;;20.00;99.90;;;;;;5061308;28;20466;-77
2021/10/03 07:46:01;;;;;;;2.13;1.40;;;20.00;99.90;;;;;;5043862;28;20529;-81
2021/10/03 07:48:30;;;;;;;3.40;1.80;;;20.10;99.90;;;;;;5052914;28;20451;-81
2021/10/03 07:50:58;;;;;;;2.00;1.67;;;20.10;99.90;;;;;;5057758;28;20530;-78
2021/10/03 07:53:27;;;;;;;2.57;1.60;;;20.10;99.90;;;;;;5049788;28;20455;-78
2021/10/03 07:55:55;;;;;;;2.53;1.60;;;20.10;99.90;;;;;;5052516;28;20482;-78
2021/10/03 07:58:24;;;;;;;1.50;1.40;;;20.10;99.90;;;;;;5057309;28;20454;-78
2021/10/03 08:00:52;;;;;;;1.70;1.50;;;20.10;99.90;;;;;;5049487;28;20460;-79
2021/10/03 08:03:21;;;;;;;1.70;1.60;;;20.20;99.90;;;;;;5049734;28;21025;-78
2021/10/03 08:05:49;;;;;;;1.40;1.30;;;20.20;99.90;;;;;;5049898;28;20500;-78
2021/10/03 08:08:17;;;;;;;1.80;1.70;;;20.30;99.90;;;;;;5051787;28;20462;-79
2021/10/03 08:10:47;;;;;;;2.30;1.40;;;20.30;99.90;;;;;;5036044;28;20451;-78
2021/10/03 08:13:15;;;;;;;1.70;1.60;;;20.40;99.90;;;;;;5055038;28;20431;-78
2021/10/03 08:15:44;;;;;;;1.67;1.57;;;20.40;99.90;;;;;;5049250;28;20479;-77
2021/10/03 08:18:12;;;;;;;2.30;1.40;;;20.50;99.90;;;;;;5048779;28;20512;-76
2021/10/03 08:20:42;;;;;;;1.60;1.50;;;20.50;99.90;;;;;;5061983;28;20537;-78
2021/10/03 08:23:10;;;;;;;3.37;1.63;;;20.70;99.90;;;;;;5058137;28;20481;-77
2021/10/03 08:25:39;;;;;;;2.83;1.40;;;20.70;99.90;;;;;;5055851;28;20474;-78
2021/10/03 08:28:08;;;;;;;3.30;1.40;;;20.70;99.90;;;;;;5061914;28;20450;-77
2021/10/03 08:30:37;;;;;;;2.00;1.50;;;20.80;99.90;;;;;;5040806;28;20527;-77
2021/10/03 08:33:05;;;;;;;3.43;1.70;;;20.80;99.90;;;;;;5055309;28;20942;-78
2021/10/03 08:35:34;;;;;;;3.00;1.60;;;20.80;99.90;;;;;;5050271;28;21002;-78
2021/10/03 08:38:03;;;;;;;2.40;1.70;;;20.80;99.90;;;;;;5050692;28;20490;-78
2021/10/03 08:40:31;;;;;;;1.67;1.57;;;20.90;99.90;;;;;;5052142;28;20466;-79
2021/10/03 08:42:59;;;;;;;1.37;1.20;;;20.80;99.90;;;;;;5052883;28;20520;-79
2021/10/03 08:45:29;;;;;;;1.70;1.60;;;20.80;99.90;;;;;;5048370;28;20466;-79
2021/10/03 08:47:59;;;;;;;2.07;1.50;;;20.80;99.90;;;;;;5061878;28;20450;-80
2021/10/03 08:50:27;;;;;;;1.33;1.20;;;20.80;99.90;;;;;;5058181;28;20517;-79
2021/10/03 08:52:55;;;;;;;1.83;1.60;;;20.80;99.90;;;;;;5028646;28;20477;-80
2021/10/03 08:55:24;;;;;;;1.50;1.20;;;20.80;99.90;;;;;;5043282;28;20475;-80
2021/10/03 08:57:52;;;;;;;1.60;1.50;;;20.80;99.90;;;;;;5054346;28;20449;-79
2021/10/03 09:00:22;;;;;;;2.20;1.60;;;20.80;99.90;;;;;;5055693;28;20455;-79
2021/10/03 09:03:05;;;;;;;2.00;1.50;;;20.90;99.90;;;;;;5048247;28;20459;-79
2021/10/03 09:05:35;;;;;;;2.10;1.40;;;20.80;99.90;;;;;;5055434;28;20475;-79
2021/10/03 09:08:08;;;;;;;1.30;1.20;;;20.80;99.90;;;;;;5051346;28;20497;-79
2021/10/03 09:10:52;;;;;;;2.90;1.47;;;20.80;99.90;;;;;;5056518;28;20504;-76
2021/10/03 09:13:22;;;;;;;1.23;1.13;;;20.80;99.90;;;;;;5034444;28;20453;-79
2021/10/03 09:16:11;;;;;;;2.00;1.80;;;20.70;99.90;;;;;;5050795;28;20986;-80
2021/10/03 09:18:44;;;;;;;1.87;1.30;;;20.80;99.90;;;;;;5044419;28;20621;-79
2021/10/03 09:21:15;;;;;;;1.63;1.53;;;20.70;99.90;;;;;;5038979;28;20464;-79
2021/10/03 09:23:43;;;;;;;1.60;1.47;;;20.70;99.90;;;;;;5039603;28;20523;-78
2021/10/03 09:26:14;;;;;;;1.50;1.40;;;20.70;99.90;;;;;;5052512;28;20479;-79
2021/10/03 09:28:42;;;;;;;1.50;1.40;;;20.80;99.90;;;;;;5046228;28;20462;-79
2021/10/03 09:31:14;;;;;;;3.13;1.60;;;20.90;99.90;;;;;;5048498;28;21052;-80
2021/10/03 09:33:49;;;;;;;2.20;1.50;;;20.90;99.90;;;;;;5038596;28;20881;-78
2021/10/03 09:36:19;;;;;;;1.73;1.40;;;20.90;99.90;;;;;;5031817;28;20475;-80
2021/10/03 09:38:54;;;;;;;1.90;1.70;;;20.90;99.90;;;;;;5050484;28;20443;-80
2021/10/03 09:41:24;;;;;;;1.70;1.60;;;20.80;99.90;;;;;;5048473;28;20462;-79
2021/10/03 09:43:55;;;;;;;1.93;1.70;;;20.90;99.90;;;;;;5039656;28;20483;-79
2021/10/03 09:46:38;;;;;;;1.93;1.27;;;20.90;99.90;;;;;;5053991;28;20521;-80
2021/10/03 09:49:10;;;;;;;2.30;1.60;;;21.00;99.90;;;;;;5042392;28;20513;-79
2021/10/03 09:51:39;;;;;;;1.63;1.30;;;21.00;99.90;;;;;;5032941;28;21002;-78
2021/10/03 09:54:09;;;;;;;1.33;1.23;;;21.00;99.90;;;;;;5045743;28;20951;-79
2021/10/03 09:56:37;;;;;;;2.77;1.80;;;21.00;99.90;;;;;;5046550;28;21137;-78
2021/10/03 09:59:06;;;;;;;3.10;1.80;;;21.10;99.90;;;;;;5049213;28;20451;-80
2021/10/03 10:01:38;;;;;;;1.40;1.30;;;21.00;99.90;;;;;;5035260;28;20524;-79
2021/10/03 10:04:09;;;;;;;2.03;1.83;;;21.10;99.90;;;;;;5049484;28;21049;-78
2021/10/03 10:06:38;;;;;;;2.57;2.20;;;21.10;99.90;;;;;;5031826;28;21049;-81
2021/10/03 10:09:07;;;;;;;1.70;1.43;;;21.10;99.90;;;;;;5049072;28;20526;-79
2021/10/03 10:11:40;;;;;;;2.03;1.33;;;21.20;99.90;;;;;;5054446;28;20470;-80
2021/10/03 10:14:10;;;;;;;1.60;1.50;;;21.20;99.90;;;;;;5048623;28;21561;-79
2021/10/03 10:16:44;;;;;;;1.97;1.37;;;21.20;99.90;;;;;;5051880;28;20453;-83
2021/10/03 10:19:46;;;;;;;3.60;1.57;;;21.20;99.90;;;;;;5049002;28;20443;-80
2021/10/03 10:22:37;;;;;;;1.70;1.60;;;21.30;99.90;;;;;;5044395;28;20526;-78
2021/10/03 10:25:20;;;;;;;2.30;2.10;;;21.30;99.90;;;;;;5058169;28;20486;-79
2021/10/03 10:28:04;;;;;;;2.33;2.13;;;21.30;99.90;;;;;;5049312;28;20462;-81
2021/10/03 10:30:33;;;;;;;1.83;1.40;;;21.30;99.90;;;;;;5063178;28;20492;-81
2021/10/03 10:33:16;;;;;;;1.67;1.40;;;21.40;99.90;;;;;;5051974;28;20459;-78
2021/10/03 10:35:46;;;;;;;2.17;1.53;;;21.50;99.90;;;;;;5033923;28;20883;-78
2021/10/03 10:38:20;;;;;;;1.70;1.43;;;21.40;99.90;;;;;;5048379;28;21015;-79
2021/10/03 10:40:51;;;;;;;2.30;1.57;;;21.40;99.90;;;;;;5048072;28;20452;-81
2021/10/03 10:43:46;;;;;;;1.57;1.47;;;21.50;99.90;;;;;;5052858;28;20451;-78
2021/10/03 10:46:47;;;;;;;1.60;1.50;;;21.50;99.90;;;;;;5059407;28;20469;-80
2021/10/03 10:49:46;;;;;;;2.70;2.10;;;21.50;99.90;;;;;;5053100;28;20478;-81
2021/10/03 10:52:31;;;;;;;1.63;1.40;;;21.50;99.90;;;;;;5044352;28;20454;-82
2021/10/03 10:55:21;;;;;;;4.83;1.80;;;21.50;99.90;;;;;;5053180;28;20527;-81
2021/10/03 10:58:20;;;;;;;2.33;1.80;;;21.50;99.90;;;;;;5053712;28;20512;-80
2021/10/03 11:01:13;;;;;;;1.83;1.60;;;21.60;99.90;;;;;;5043035;28;20452;-80
2021/10/03 11:04:04;;;;;;;1.63;1.47;;;21.60;99.90;;;;;;5046842;28;20481;-81
2021/10/03 11:07:00;;;;;;;2.27;1.70;;;21.60;99.90;;;;;;5043776;28;20462;-78
2021/10/03 11:09:54;;;;;;;1.63;1.53;;;21.60;99.90;;;;;;5044098;28;20450;-79
2021/10/03 11:12:40;;;;;;;1.77;1.67;;;21.60;99.90;;;;;;5060662;28;20458;-80
2021/10/03 11:15:27;;;;;;;2.40;2.20;;;21.60;99.90;;;;;;5061279;28;20524;-80
2021/10/03 11:18:04;;;;;;;1.80;1.70;;;21.60;99.90;;;;;;5054798;28;20459;-79
2021/10/03 11:20:32;;;;;;;2.10;1.93;;;21.50;99.90;;;;;;5041730;28;20628;-80
2021/10/03 11:23:00;;;;;;;1.60;1.50;;;21.50;99.90;;;;;;5026861;28;20484;-80
2021/10/03 11:25:31;;;;;;;1.90;1.57;;;21.50;99.90;;;;;;5052317;28;20485;-79
2021/10/03 11:27:59;;;;;;;1.53;1.43;;;21.50;99.90;;;;;;5055827;28;20500;-79
2021/10/03 11:30:29;;;;;;;2.97;1.93;;;21.60;99.90;;;;;;5043692;28;20454;-80
2021/10/03 11:32:57;;;;;;;2.73;1.73;;;21.60;99.90;;;;;;5051632;28;20454;-78
2021/10/03 11:35:28;;;;;;;1.83;1.63;;;21.70;99.90;;;;;;5044419;28;20942;-81
2021/10/03 11:38:01;;;;;;;2.13;1.60;;;21.70;99.90;;;;;;5049157;28;20546;-79
2021/10/03 11:40:34;;;;;;;1.93;1.83;;;21.70;99.90;;;;;;5041360;28;20454;-80
2021/10/03 11:43:02;;;;;;;1.97;1.77;;;21.70;99.90;;;;;;5060735;28;20831;-80
2021/10/03 11:45:33;;;;;;;1.43;1.33;;;21.70;99.90;;;;;;5042547;28;20482;-79
2021/10/03 11:48:03;;;;;;;2.33;1.50;;;21.70;99.90;;;;;;5046743;28;20447;-80
2021/10/03 11:50:32;;;;;;;2.70;1.40;;;21.80;99.90;;;;;;5039369;28;20515;-80
2021/10/03 11:53:13;;;;;;;2.03;1.50;;;21.80;99.90;;;;;;5042755;28;21200;-79
2021/10/03 11:55:44;;;;;;;3.93;3.53;;;21.90;99.90;;;;;;5042604;28;20753;-81
2021/10/03 11:58:14;;;;;;;4.13;3.30;;;21.90;99.90;;;;;;5047020;28;20469;-80
2021/10/03 12:00:50;;;;;;;3.63;2.80;;;21.90;99.90;;;;;;5059106;28;20445;-81
2021/10/03 12:03:19;;;;;;;1.50;1.40;;;21.90;99.90;;;;;;5045886;28;20453;-79
2021/10/03 12:05:47;;;;;;;1.43;1.33;;;22.00;99.90;;;;;;5032048;28;20485;-80
2021/10/03 12:08:17;;;;;;;1.40;1.30;;;22.00;99.90;;;;;;5041683;28;20954;-79
2021/10/03 12:10:49;;;;;;;1.40;1.30;;;22.10;99.90;;;;;;5040056;28;20454;-80
2021/10/03 12:13:20;;;;;;;1.50;1.40;;;22.10;99.90;;;;;;5042549;28;20480;-80
2021/10/03 12:16:13;;;;;;;1.67;1.37;;;22.10;99.90;;;;;;5056574;28;20540;-80
2021/10/03 12:18:44;;;;;;;1.73;1.63;;;22.20;99.90;;;;;;5027324;28;21264;-81
2021/10/03 12:21:15;;;;;;;2.23;2.03;;;22.20;99.90;;;;;;5043918;28;20452;-81
2021/10/03 12:23:50;;;;;;;1.40;1.30;;;22.30;99.90;;;;;;5045729;28;20504;-81
2021/10/03 12:26:26;;;;;;;2.33;2.13;;;22.30;99.90;;;;;;5043837;28;20862;-80
2021/10/03 12:29:08;;;;;;;1.80;1.50;;;22.20;99.90;;;;;;5048724;28;20487;-80
2021/10/03 12:31:51;;;;;;;1.80;1.67;;;22.20;99.90;;;;;;5051937;28;20959;-80
2021/10/03 12:34:41;;;;;;;2.07;1.87;;;22.30;99.90;;;;;;5032637;28;20465;-78
2021/10/03 12:37:32;;;;;;;2.13;1.70;;;22.30;99.90;;;;;;5030198;28;20512;-77
2021/10/03 12:40:01;;;;;;;2.30;1.53;;;22.40;99.90;;;;;;5050909;28;20821;-79
2021/10/03 12:42:31;;;;;;;1.63;1.53;;;22.40;99.90;;;;;;5049123;28;20518;-81
2021/10/03 12:45:01;;;;;;;1.40;1.30;;;22.40;99.90;;;;;;5052672;28;20478;-78
2021/10/03 12:47:30;;;;;;;1.63;1.53;;;22.40;99.90;;;;;;5048000;28;20446;-79
2021/10/03 12:49:59;;;;;;;1.97;1.33;;;22.50;99.90;;;;;;5061560;28;20552;-79
2021/10/03 12:52:27;;;;;;;1.80;1.70;;;22.50;99.90;;;;;;5046400;28;20461;-77
2021/10/03 12:54:56;;;;;;;2.60;2.40;;;22.50;99.90;;;;;;5056254;28;20473;-79
2021/10/03 12:57:24;;;;;;;1.67;1.47;;;22.50;99.90;;;;;;5029015;28;20450;-79
2021/10/03 12:59:54;;;;;;;1.90;1.53;;;22.50;99.90;;;;;;5053893;28;20454;-79
2021/10/03 13:02:22;;;;;;;1.83;1.10;;;22.50;99.90;;;;;;5050258;28;20876;-77
2021/10/03 13:05:07;;;;;;;1.63;1.53;;;22.50;99.90;;;;;;5032279;28;21009;-77
2021/10/03 13:07:35;;;;;;;1.67;1.57;;;22.50;99.90;;;;;;5051608;28;20971;-79